Time;durP1;ratioP1;P1;durP2;ratioP2;P2;SDS_P1;SDS_P2;PMS_P1;PMS_P2;Temp;Humidity;BMP_temperature;BMP_pressure;BME280_temperature;BME280_humidity;BME280_pressure;Samples;Min_cycle;Max_cycle;Signal;HPM_P1;HPM_P2
2023/03/24 04:00:49;;;;;;;0.60;0.45;;;20.20;52.50;;;;;;6096034;22;45969;-61
2023/03/24 04:03:33;;;;;;;0.20;0.20;;;20.20;52.60;;;;;;4903426;28;51275;-60
2023/03/24 04:06:07;;;;;;;0.20;0.20;;;20.10;52.50;;;;;;4953347;28;45346;-60
2023/03/24 04:09:08;;;;;;;0.50;0.30;;;20.10;52.60;;;;;;4945640;28;46794;-60
2023/03/24 04:11:49;;;;;;;0.20;0.20;;;20.10;52.60;;;;;;4941439;28;45242;-60
2023/03/24 04:14:40;;;;;;;0.40;0.30;;;20.10;52.60;;;;;;4931281;28;45267;-61
2023/03/24 04:17:29;;;;;;;0.30;0.30;;;20.10;52.60;;;;;;4922355;28;45237;-61
2023/03/24 04:19:59;;;;;;;0.40;0.30;;;20.10;52.60;;;;;;4930254;28;45788;-60
2023/03/24 04:22:38;;;;;;;0.20;0.20;;;20.10;52.50;;;;;;4940783;28;45244;-61
2023/03/24 04:25:18;;;;;;;0.20;0.20;;;20.10;52.50;;;;;;4928956;28;45614;-59
2023/03/24 04:28:02;;;;;;;0.28;0.25;;;20.10;52.60;;;;;;4929534;28;44996;-61
2023/03/24 04:30:36;;;;;;;0.38;0.38;;;20.10;52.60;;;;;;4934113;28;45714;-61
2023/03/24 04:33:04;;;;;;;0.30;0.30;;;20.10;52.50;;;;;;4936349;28;46135;-61
2023/03/24 04:35:34;;;;;;;0.40;0.40;;;20.10;52.60;;;;;;4918206;28;45261;-60
2023/03/24 04:38:04;;;;;;;0.52;0.32;;;20.10;52.60;;;;;;4918219;28;45205;-61
2023/03/24 04:40:31;;;;;;;0.30;0.30;;;20.10;52.60;;;;;;4924569;28;44972;-60
2023/03/24 04:42:58;;;;;;;0.30;0.30;;;20.10;52.60;;;;;;4948963;28;45235;-60
2023/03/24 04:45:24;;;;;;;0.28;0.28;;;20.10;52.50;;;;;;4923556;28;45352;-59
2023/03/24 04:47:52;;;;;;;0.10;0.10;;;20.10;52.50;;;;;;4929212;28;45002;-61
2023/03/24 04:50:29;;;;;;;0.20;0.20;;;20.10;52.50;;;;;;4942458;28;44977;-61
2023/03/24 04:52:55;;;;;;;0.38;0.20;;;20.10;52.60;;;;;;4930660;28;45473;-59
2023/03/24 04:55:33;;;;;;;0.52;0.40;;;20.00;52.50;;;;;;4907935;28;45496;-61
2023/03/24 04:57:58;;;;;;;0.38;0.30;;;20.00;52.50;;;;;;4926027;28;45570;-59
2023/03/24 05:00:24;;;;;;;0.30;0.30;;;20.00;52.50;;;;;;4918659;28;45838;-61
2023/03/24 05:02:51;;;;;;;0.30;0.30;;;20.00;52.50;;;;;;4937087;28;45351;-63
2023/03/24 05:05:17;;;;;;;0.30;0.30;;;20.00;52.50;;;;;;4942379;28;45223;-60
2023/03/24 05:07:42;;;;;;;0.30;0.30;;;20.00;52.50;;;;;;4906620;28;44864;-61
2023/03/24 05:10:09;;;;;;;0.30;0.30;;;20.00;52.50;;;;;;4941213;28;45275;-60
2023/03/24 05:12:35;;;;;;;0.30;0.28;;;20.00;52.50;;;;;;4922685;28;45658;-60
2023/03/24 05:15:00;;;;;;;0.68;0.30;;;20.00;52.50;;;;;;4945907;28;45101;-61
2023/03/24 05:17:26;;;;;;;0.50;0.20;;;20.00;52.50;;;;;;4900898;28;45748;-60
2023/03/24 05:19:51;;;;;;;0.47;0.40;;;20.00;52.60;;;;;;4931022;28;44950;-61
2023/03/24 05:22:17;;;;;;;0.28;0.28;;;20.00;52.50;;;;;;4934125;28;45666;-61
2023/03/24 05:24:42;;;;;;;0.60;0.30;;;20.00;52.50;;;;;;4933718;28;45668;-61
2023/03/24 05:27:08;;;;;;;0.50;0.30;;;20.00;52.60;;;;;;4905694;28;45527;-61
2023/03/24 05:29:34;;;;;;;0.30;0.30;;;20.00;52.60;;;;;;4912962;28;45801;-60
2023/03/24 05:31:59;;;;;;;0.47;0.47;;;20.00;52.60;;;;;;4934736;28;45248;-61
2023/03/24 05:34:25;;;;;;;0.28;0.28;;;20.00;52.60;;;;;;4937504;28;45321;-61
2023/03/24 05:36:50;;;;;;;0.28;0.28;;;20.00;52.60;;;;;;4920368;28;45458;-61
2023/03/24 05:39:16;;;;;;;0.20;0.20;;;20.00;52.60;;;;;;4935246;28;46651;-61
2023/03/24 05:41:41;;;;;;;0.40;0.40;;;20.00;52.50;;;;;;4924715;28;45726;-61
2023/03/24 05:44:07;;;;;;;0.30;0.30;;;20.00;52.60;;;;;;4928619;28;45369;-61
2023/03/24 05:46:32;;;;;;;0.20;0.20;;;19.90;52.50;;;;;;4927318;28;45591;-60
2023/03/24 05:48:58;;;;;;;0.30;0.30;;;19.90;52.60;;;;;;4944003;28;45282;-61
2023/03/24 05:51:23;;;;;;;0.40;0.32;;;19.90;52.60;;;;;;4936747;28;45572;-61
2023/03/24 05:53:50;;;;;;;0.25;0.25;;;19.90;52.60;;;;;;4931624;28;45063;-61
2023/03/24 05:56:16;;;;;;;0.30;0.30;;;19.90;52.60;;;;;;4932841;28;45427;-61
2023/03/24 05:58:43;;;;;;;0.20;0.20;;;19.90;52.60;;;;;;4919595;28;45101;-61
2023/03/24 06:01:09;;;;;;;0.20;0.20;;;19.90;52.60;;;;;;4937602;28;45425;-60
2023/03/24 06:03:37;;;;;;;0.20;0.20;;;19.90;52.60;;;;;;4913868;28;44935;-60
2023/03/24 06:06:05;;;;;;;0.38;0.38;;;19.90;52.60;;;;;;4924058;28;45129;-61
2023/03/24 06:08:32;;;;;;;0.30;0.30;;;19.90;52.60;;;;;;4938570;28;45547;-60
2023/03/24 06:11:01;;;;;;;0.30;0.30;;;19.90;52.60;;;;;;4941695;28;45856;-61
2023/03/24 06:13:29;;;;;;;0.20;0.20;;;19.90;52.60;;;;;;4943661;28;45030;-60
2023/03/24 06:15:57;;;;;;;0.20;0.20;;;19.90;52.60;;;;;;4937716;28;45172;-61
2023/03/24 06:18:25;;;;;;;0.17;0.15;;;19.90;52.60;;;;;;4936902;28;45621;-61
2023/03/24 06:20:55;;;;;;;0.20;0.20;;;19.90;52.60;;;;;;4928175;28;46436;-61
2023/03/24 06:23:27;;;;;;;0.40;0.40;;;19.90;52.60;;;;;;4929936;28;45436;-60
2023/03/24 06:25:57;;;;;;;0.20;0.20;;;19.90;52.60;;;;;;4928687;28;45141;-60
2023/03/24 06:28:24;;;;;;;0.40;0.40;;;19.90;52.60;;;;;;4936118;28;45571;-60
2023/03/24 06:30:50;;;;;;;0.20;0.20;;;19.90;52.60;;;;;;4916451;28;46308;-62
2023/03/24 06:33:16;;;;;;;0.30;0.30;;;19.90;52.60;;;;;;4919947;28;45040;-61
2023/03/24 06:35:41;;;;;;;0.30;0.20;;;19.90;52.60;;;;;;4912860;28;45323;-61
2023/03/24 06:38:07;;;;;;;0.20;0.20;;;19.90;52.60;;;;;;4917241;28;45023;-61
2023/03/24 06:40:33;;;;;;;0.30;0.30;;;19.90;52.50;;;;;;4936314;28;45511;-60
2023/03/24 06:42:58;;;;;;;0.28;0.28;;;19.80;52.50;;;;;;4933289;28;45320;-61
2023/03/24 06:45:24;;;;;;;0.45;0.40;;;19.90;52.50;;;;;;4924179;28;45330;-59
2023/03/24 06:47:56;;;;;;;0.55;0.38;;;19.90;52.50;;;;;;4924150;28;45377;-60
2023/03/24 06:50:25;;;;;;;0.40;0.40;;;19.90;52.50;;;;;;4927366;28;45706;-60
2023/03/24 06:52:51;;;;;;;4.65;0.75;;;19.90;52.50;;;;;;4928592;28;45239;-59
2023/03/24 06:55:17;;;;;;;2.65;1.30;;;19.80;52.20;;;;;;4914456;28;45297;-59
2023/03/24 06:57:43;;;;;;;2.50;1.65;;;19.80;52.10;;;;;;4928920;28;45516;-59
2023/03/24 07:00:10;;;;;;;5.43;2.25;;;19.70;51.80;;;;;;4942551;28;45309;-62
2023/03/24 07:02:36;;;;;;;;;;;19.50;51.50;;;;;;4923442;28;45449;-61
2023/03/24 07:05:05;;;;;;;2.17;1.90;;;19.30;51.50;;;;;;4919502;28;45165;-61
2023/03/24 07:07:32;;;;;;;3.80;2.40;;;19.30;52.30;;;;;;4940856;28;45460;-61
2023/03/24 07:09:57;;;;;;;2.60;1.85;;;19.30;52.00;;;;;;4913126;28;47007;-61
2023/03/24 07:12:23;;;;;;;4.15;2.38;;;19.40;51.90;;;;;;4934338;28;45299;-60
2023/03/24 07:14:48;;;;;;;2.38;1.90;;;19.40;51.70;;;;;;4946382;28;45936;-59
2023/03/24 07:17:14;;;;;;;4.28;2.63;;;19.50;51.60;;;;;;4907226;28;45573;-58
2023/03/24 07:19:40;;;;;;;2.63;2.30;;;19.70;51.20;;;;;;4928140;28;47492;-59
2023/03/24 07:22:07;;;;;;;4.32;2.38;;;19.60;51.90;;;;;;4927733;28;45557;-59
2023/03/24 07:24:34;;;;;;;2.92;2.10;;;19.60;51.40;;;;;;4938913;28;45599;-61
2023/03/24 07:27:00;;;;;;;2.10;1.70;;;19.60;51.40;;;;;;4942185;28;45189;-58
2023/03/24 07:29:25;;;;;;;2.33;1.88;;;19.60;51.40;;;;;;4942495;28;46310;-61
2023/03/24 07:31:53;;;;;;;;;;;19.70;51.50;;;;;;4917173;28;45413;-60
2023/03/24 07:34:19;;;;;;;;;;;19.60;51.40;;;;;;4946244;28;45252;-60
2023/03/24 07:36:44;;;;;;;1.90;1.50;;;19.60;51.40;;;;;;4943917;28;45459;-59
2023/03/24 07:39:10;;;;;;;3.15;1.85;;;19.70;51.50;;;;;;4931300;28;46704;-61
2023/03/24 07:41:35;;;;;;;5.82;1.77;;;19.70;51.40;;;;;;4943966;28;44737;-60
2023/03/24 07:44:01;;;;;;;3.40;1.73;;;19.70;51.40;;;;;;4941393;28;45809;-59
2023/03/24 07:46:27;;;;;;;6.90;2.50;;;19.80;51.40;;;;;;4940786;28;45315;-59
2023/03/24 07:48:52;;;;;;;3.80;1.80;;;19.80;51.40;;;;;;4946698;28;45132;-59
2023/03/24 07:51:18;;;;;;;3.97;2.03;;;19.80;51.40;;;;;;4940231;28;45432;-59
2023/03/24 07:53:46;;;;;;;3.55;1.67;;;19.80;51.40;;;;;;4949321;28;45479;-59
2023/03/24 07:56:12;;;;;;;3.70;2.13;;;19.80;51.40;;;;;;4939905;28;45540;-61
2023/03/24 07:58:38;;;;;;;1.88;1.55;;;19.80;51.50;;;;;;4950760;28;45773;-60
2023/03/24 08:01:08;;;;;;;2.08;1.42;;;19.80;51.40;;;;;;4917987;28;45824;-61
2023/03/24 08:03:35;;;;;;;2.00;1.65;;;19.80;51.40;;;;;;4942826;28;45442;-62
2023/03/24 08:06:01;;;;;;;2.00;1.50;;;19.90;51.40;;;;;;4944259;28;45396;-60
2023/03/24 08:08:26;;;;;;;4.07;1.50;;;19.90;51.40;;;;;;4922809;28;46386;-61
2023/03/24 08:10:52;;;;;;;2.72;1.70;;;19.90;51.40;;;;;;4927119;28;46082;-60
2023/03/24 08:13:18;;;;;;;2.30;1.80;;;19.90;51.30;;;;;;4951271;28;44997;-60
2023/03/24 08:15:43;;;;;;;2.90;1.73;;;19.90;51.40;;;;;;4931178;28;45506;-61
2023/03/24 08:18:10;;;;;;;3.35;1.58;;;19.90;51.40;;;;;;4949899;28;45498;-61
2023/03/24 08:20:35;;;;;;;3.13;1.90;;;20.00;52.10;;;;;;4928268;28;45511;-60
2023/03/24 08:23:03;;;;;;;2.42;1.80;;;20.00;51.50;;;;;;4934524;28;45008;-59
2023/03/24 08:25:29;;;;;;;1.85;1.40;;;20.00;51.50;;;;;;4941449;28;44994;-60
2023/03/24 08:27:54;;;;;;;3.85;1.95;;;20.00;51.40;;;;;;4935775;28;45532;-59
2023/03/24 08:30:22;;;;;;;3.25;1.40;;;20.00;51.40;;;;;;4938151;28;45021;-58
2023/03/24 08:32:52;;;;;;;2.05;1.33;;;20.00;51.40;;;;;;4933655;28;45323;-59
2023/03/24 08:35:19;;;;;;;5.95;1.40;;;20.00;51.40;;;;;;4933533;28;44964;-60
2023/03/24 08:37:45;;;;;;;2.42;1.48;;;20.10;51.40;;;;;;4931897;28;47053;-61
2023/03/24 08:40:13;;;;;;;2.00;1.60;;;20.10;51.40;;;;;;4945549;28;45439;-60
2023/03/24 08:42:40;;;;;;;3.45;1.55;;;20.10;51.40;;;;;;4948005;28;45649;-59
2023/03/24 08:45:06;;;;;;;1.70;1.52;;;20.10;51.50;;;;;;4917986;28;44956;-60
2023/03/24 08:47:31;;;;;;;2.40;1.38;;;20.10;51.50;;;;;;4942718;28;45355;-60
2023/03/24 08:49:57;;;;;;;8.63;2.13;;;20.10;51.50;;;;;;4946315;28;45198;-60
2023/03/24 08:52:23;;;;;;;4.35;1.48;;;20.10;51.50;;;;;;4946233;28;45592;-59
2023/03/24 08:54:49;;;;;;;1.75;1.40;;;20.10;51.50;;;;;;4946424;28;45579;-60
2023/03/24 08:57:16;;;;;;;1.33;1.23;;;20.10;51.50;;;;;;4942303;28;45451;-60
2023/03/24 08:59:41;;;;;;;2.33;1.42;;;20.10;51.50;;;;;;4944439;28;45528;-60
2023/03/24 09:02:11;;;;;;;1.85;1.40;;;20.20;51.50;;;;;;4934022;28;45661;-59
2023/03/24 09:04:37;;;;;;;2.08;1.73;;;20.20;51.60;;;;;;4946591;28;45512;-59
2023/03/24 09:07:03;;;;;;;1.90;1.40;;;20.20;51.50;;;;;;4926343;28;45575;-60
2023/03/24 09:09:29;;;;;;;1.63;1.42;;;20.20;51.50;;;;;;4924706;28;44721;-59
2023/03/24 09:11:54;;;;;;;4.35;1.63;;;20.20;51.50;;;;;;4942108;28;44896;-61
2023/03/24 09:14:21;;;;;;;3.20;1.30;;;20.20;51.60;;;;;;4930860;28;44851;-60
2023/03/24 09:16:48;;;;;;;2.70;1.17;;;20.20;51.50;;;;;;4935593;28;46254;-59
2023/03/24 09:19:15;;;;;;;2.05;1.38;;;20.20;52.10;;;;;;4933798;28;45086;-60
2023/03/24 09:21:44;;;;;;;2.85;1.50;;;20.20;51.50;;;;;;4940974;28;45248;-59
2023/03/24 09:24:10;;;;;;;3.97;1.40;;;20.30;51.50;;;;;;4928451;28;45293;-59
2023/03/24 09:26:36;;;;;;;2.70;1.60;;;20.30;51.50;;;;;;4939995;28;46451;-60
2023/03/24 09:29:02;;;;;;;2.25;1.30;;;20.30;51.50;;;;;;4939629;28;45511;-61
2023/03/24 09:31:27;;;;;;;1.63;1.13;;;20.30;51.50;;;;;;4923051;28;45234;-61
2023/03/24 09:33:53;;;;;;;4.75;1.33;;;20.30;51.50;;;;;;4913389;28;45344;-60
2023/03/24 09:36:18;;;;;;;1.90;1.25;;;20.30;51.50;;;;;;4924104;28;45567;-61
2023/03/24 09:38:44;;;;;;;1.52;1.23;;;20.30;51.50;;;;;;4947505;28;45974;-61
2023/03/24 09:41:16;;;;;;;2.65;1.20;;;20.30;51.50;;;;;;4941911;28;45236;-60
2023/03/24 09:43:53;;;;;;;2.53;1.52;;;20.30;51.50;;;;;;4946961;28;44922;-60
2023/03/24 09:46:34;;;;;;;2.15;1.40;;;20.30;51.50;;;;;;4937219;28;47177;-62
2023/03/24 09:48:59;;;;;;;3.75;1.58;;;20.30;51.50;;;;;;4926151;28;44665;-61
2023/03/24 09:51:37;;;;;;;1.35;1.20;;;20.30;51.50;;;;;;4938991;28;45564;-62
2023/03/24 09:54:21;;;;;;;1.38;1.08;;;20.30;51.50;;;;;;4940660;28;45500;-62
2023/03/24 09:56:47;;;;;;;1.50;1.30;;;20.40;51.60;;;;;;4923734;28;45875;-60
2023/03/24 09:59:27;;;;;;;1.50;1.05;;;20.30;51.50;;;;;;4933822;28;45237;-60
2023/03/24 10:01:52;;;;;;;1.33;1.17;;;20.40;51.50;;;;;;4916345;28;45730;-60
2023/03/24 10:04:19;;;;;;;2.65;1.20;;;20.40;51.50;;;;;;4943321;28;45716;-60
2023/03/24 10:06:47;;;;;;;2.15;1.10;;;20.30;51.40;;;;;;4911660;28;46666;-59
2023/03/24 10:09:29;;;;;;;1.90;1.17;;;20.40;51.50;;;;;;4924264;28;45543;-60
2023/03/24 10:12:31;;;;;;;2.57;1.10;;;20.40;51.50;;;;;;4939980;28;45204;-58
2023/03/24 10:15:01;;;;;;;2.17;1.40;;;20.40;51.40;;;;;;4930546;28;45482;-59
2023/03/24 10:17:42;;;;;;;2.35;1.17;;;20.40;51.40;;;;;;4905930;28;47518;-60
2023/03/24 10:20:17;;;;;;;2.50;1.20;;;20.50;51.40;;;;;;4916490;28;45229;-60
2023/03/24 10:22:58;;;;;;;4.45;1.10;;;20.50;51.40;;;;;;4948478;28;45728;-60
2023/03/24 10:25:49;;;;;;;2.03;1.27;;;20.50;51.40;;;;;;4931581;28;45734;-59
2023/03/24 10:28:26;;;;;;;1.88;1.10;;;20.50;51.40;;;;;;4911288;28;46963;-60
2023/03/24 10:30:53;;;;;;;1.15;1.05;;;20.40;51.40;;;;;;4908986;28;45233;-60
2023/03/24 10:33:19;;;;;;;2.35;1.40;;;20.50;51.40;;;;;;4923307;28;44722;-61
2023/03/24 10:35:51;;;;;;;2.97;1.58;;;20.50;51.40;;;;;;4911993;28;45564;-61
2023/03/24 10:38:18;;;;;;;3.33;1.20;;;20.50;51.40;;;;;;4944525;28;45529;-62
2023/03/24 10:40:45;;;;;;;1.58;1.20;;;20.50;51.40;;;;;;4926344;28;45652;-60
2023/03/24 10:43:11;;;;;;;1.55;1.00;;;20.50;51.40;;;;;;4927505;28;44975;-60
2023/03/24 10:45:39;;;;;;;1.77;1.02;;;20.50;51.40;;;;;;4924692;28;45355;-59
2023/03/24 10:48:06;;;;;;;1.40;1.10;;;20.50;51.40;;;;;;4929848;28;45615;-60
2023/03/24 10:50:32;;;;;;;1.20;1.10;;;20.50;51.40;;;;;;4926177;28;45185;-59
2023/03/24 10:52:58;;;;;;;1.60;1.30;;;20.50;51.40;;;;;;4933405;28;45067;-58
2023/03/24 10:55:30;;;;;;;1.38;1.05;;;20.50;51.40;;;;;;4914275;28;45430;-60
2023/03/24 10:57:57;;;;;;;2.80;1.20;;;20.60;51.50;;;;;;4924088;28;46851;-59
2023/03/24 11:00:28;;;;;;;1.40;1.10;;;20.60;51.50;;;;;;4933364;28;45389;-59
2023/03/24 11:03:30;;;;;;;3.90;1.25;;;20.60;51.60;;;;;;4944708;28;45200;-61
2023/03/24 11:06:02;;;;;;;1.77;1.15;;;20.60;51.60;;;;;;4910774;28;45298;-59
2023/03/24 11:08:36;;;;;;;1.50;1.20;;;20.60;51.60;;;;;;4926984;28;46064;-58
2023/03/24 11:11:32;;;;;;;3.85;1.10;;;20.60;51.60;;;;;;4923063;28;45354;-60
2023/03/24 11:14:03;;;;;;;1.45;1.13;;;20.60;51.70;;;;;;4944090;28;45622;-60
2023/03/24 11:16:36;;;;;;;0.90;0.80;;;20.50;51.60;;;;;;4926199;28;45257;-63
2023/03/24 11:19:05;;;;;;;;;;;20.50;51.60;;;;;;4928673;28;45643;-60
2023/03/24 11:21:34;;;;;;;1.75;1.13;;;20.50;51.80;;;;;;4940184;28;45162;-60
2023/03/24 11:24:00;;;;;;;1.65;1.20;;;20.50;51.70;;;;;;4945178;28;45412;-59
2023/03/24 11:26:31;;;;;;;3.55;1.05;;;20.50;51.70;;;;;;4923212;28;45426;-57
2023/03/24 11:28:58;;;;;;;2.17;1.30;;;20.50;51.70;;;;;;4924013;28;45365;-60
2023/03/24 11:31:29;;;;;;;1.27;0.82;;;20.50;51.70;;;;;;4920722;28;45419;-59
2023/03/24 11:34:06;;;;;;;1.27;0.98;;;20.50;51.70;;;;;;4927860;28;45232;-60
2023/03/24 11:36:32;;;;;;;2.28;1.05;;;20.50;51.80;;;;;;4925904;28;45228;-59
2023/03/24 11:39:16;;;;;;;1.83;1.00;;;20.50;51.80;;;;;;4949533;28;45463;-59
2023/03/24 11:41:58;;;;;;;1.30;1.17;;;20.50;51.80;;;;;;4921136;28;45122;-60
2023/03/24 11:44:24;;;;;;;1.67;1.10;;;20.40;51.80;;;;;;4928993;28;44834;-61
2023/03/24 11:47:10;;;;;;;1.40;0.98;;;20.40;51.80;;;;;;4910111;28;45369;-59
2023/03/24 11:49:43;;;;;;;0.90;0.90;;;20.40;51.90;;;;;;4941674;28;45989;-61
2023/03/24 11:52:40;;;;;;;2.05;1.25;;;20.40;51.90;;;;;;4915682;28;45625;-59
2023/03/24 11:55:49;;;;;;;1.38;1.05;;;20.40;51.90;;;;;;4906276;28;45524;-59
2023/03/24 11:58:35;;;;;;;1.80;1.05;;;20.40;52.00;;;;;;4926743;28;45147;-59
2023/03/24 12:01:02;;;;;;;1.67;1.05;;;20.40;51.90;;;;;;4918988;28;45694;-59
2023/03/24 12:03:47;;;;;;;1.92;1.15;;;20.40;51.90;;;;;;4941600;28;45445;-59
2023/03/24 12:06:49;;;;;;;1.85;1.13;;;20.40;51.80;;;;;;4937164;28;45567;-60
2023/03/24 12:09:20;;;;;;;;;;;20.50;51.80;;;;;;4942571;28;44979;-60
2023/03/24 12:12:11;;;;;;;1.92;1.10;;;20.40;51.80;;;;;;4922803;28;45440;-59
2023/03/24 12:14:40;;;;;;;4.00;1.45;;;20.50;51.80;;;;;;4924559;28;45292;-58
2023/03/24 12:17:13;;;;;;;2.85;0.93;;;20.40;51.70;;;;;;4922748;28;45565;-60
2023/03/24 12:19:43;;;;;;;1.90;1.20;;;20.50;51.70;;;;;;4939183;28;45630;-60
2023/03/24 12:22:27;;;;;;;1.88;1.10;;;20.50;51.70;;;;;;4940764;28;45395;-59
2023/03/24 12:24:55;;;;;;;1.38;0.95;;;20.50;51.80;;;;;;4941908;28;45177;-58
2023/03/24 12:27:32;;;;;;;1.17;1.02;;;20.50;51.70;;;;;;4948190;28;45313;-59
2023/03/24 12:30:29;;;;;;;1.38;1.02;;;20.50;51.80;;;;;;4949078;28;44737;-58
2023/03/24 12:33:17;;;;;;;3.63;1.10;;;20.50;51.80;;;;;;4921842;28;47236;-57
2023/03/24 12:35:55;;;;;;;3.55;1.05;;;20.50;51.80;;;;;;4917317;28;45284;-58
2023/03/24 12:38:52;;;;;;;3.17;1.20;;;20.50;51.80;;;;;;4948170;28;45127;-57
2023/03/24 12:41:35;;;;;;;2.65;1.10;;;20.50;51.90;;;;;;4945953;28;45222;-59
2023/03/24 12:44:37;;;;;;;1.27;0.98;;;20.50;51.90;;;;;;4938196;28;45128;-59
2023/03/24 12:47:30;;;;;;;1.55;1.23;;;20.50;51.90;;;;;;4940924;28;45481;-60
2023/03/24 12:50:23;;;;;;;1.83;1.20;;;20.50;51.90;;;;;;4937576;28;45503;-58
2023/03/24 12:52:51;;;;;;;1.20;1.10;;;20.50;51.90;;;;;;4947014;28;45380;-57
2023/03/24 12:55:23;;;;;;;1.38;0.90;;;20.50;51.90;;;;;;4950658;28;46682;-56
2023/03/24 12:57:53;;;;;;;2.00;0.95;;;20.50;51.80;;;;;;4936219;28;45215;-58
2023/03/24 13:00:22;;;;;;;1.98;1.33;;;20.60;51.90;;;;;;4925911;28;45788;-60
2023/03/24 13:02:50;;;;;;;1.98;1.02;;;20.60;51.90;;;;;;4916030;28;45420;-59
2023/03/24 13:05:32;;;;;;;1.63;0.70;;;20.60;51.90;;;;;;4912232;28;47047;-58
2023/03/24 13:08:02;;;;;;;3.15;0.98;;;20.60;51.90;;;;;;4930834;28;45076;-57
2023/03/24 13:10:29;;;;;;;1.48;0.82;;;20.60;51.90;;;;;;4931699;28;45256;-58
2023/03/24 13:13:12;;;;;;;1.15;1.00;;;20.60;51.90;;;;;;4921454;28;44765;-58
2023/03/24 13:15:46;;;;;;;1.10;1.00;;;20.60;51.90;;;;;;4930196;28;45557;-59
2023/03/24 13:18:30;;;;;;;1.23;0.93;;;20.60;51.90;;;;;;4934136;28;45394;-59
2023/03/24 13:21:04;;;;;;;3.50;1.20;;;20.60;51.90;;;;;;4947357;28;45473;-57
2023/03/24 13:23:37;;;;;;;1.35;0.90;;;20.60;52.00;;;;;;4935119;28;45213;-60
2023/03/24 13:26:22;;;;;;;2.47;1.00;;;20.50;52.00;;;;;;4941930;28;46538;-58
2023/03/24 13:29:02;;;;;;;1.75;1.15;;;20.60;52.10;;;;;;4950545;28;45136;-59
2023/03/24 13:31:30;;;;;;;1.13;0.90;;;20.60;52.10;;;;;;4938131;28;44831;-61
2023/03/24 13:33:56;;;;;;;2.17;0.90;;;20.60;52.10;;;;;;4934315;28;45720;-59
2023/03/24 13:36:42;;;;;;;0.70;0.70;;;20.60;52.10;;;;;;4948140;28;45647;-58
2023/03/24 13:39:13;;;;;;;1.00;0.90;;;20.60;52.10;;;;;;4933422;28;46271;-59
2023/03/24 13:41:38;;;;;;;1.17;0.90;;;20.60;52.10;;;;;;4921709;28;45056;-58
2023/03/24 13:44:21;;;;;;;1.83;0.90;;;20.60;52.10;;;;;;4935500;28;45470;-60
2023/03/24 13:47:11;;;;;;;1.17;0.88;;;20.60;52.30;;;;;;4925414;28;45291;-59
2023/03/24 13:49:36;;;;;;;2.65;1.15;;;20.60;52.20;;;;;;4930645;28;45336;-58
2023/03/24 13:52:12;;;;;;;5.50;0.93;;;20.60;52.10;;;;;;4929641;28;45692;-59
2023/03/24 13:54:38;;;;;;;3.88;1.08;;;20.60;52.20;;;;;;4932647;28;45289;-59
2023/03/24 13:57:19;;;;;;;1.15;0.95;;;20.60;52.20;;;;;;4915084;28;45593;-59
2023/03/24 14:00:05;;;;;;;1.65;0.80;;;20.60;52.30;;;;;;4947079;28;45379;-59
2023/03/24 14:02:46;;;;;;;2.03;1.02;;;20.60;52.30;;;;;;4942732;28;46227;-62
2023/03/24 14:05:20;;;;;;;1.33;1.10;;;20.60;52.30;;;;;;4926652;28;45840;-59
2023/03/24 14:07:47;;;;;;;1.17;0.80;;;20.60;52.30;;;;;;4942255;28;46407;-60
2023/03/24 14:10:13;;;;;;;1.63;1.00;;;20.60;52.30;;;;;;4908708;28;45228;-62
2023/03/24 14:12:58;;;;;;;1.23;1.00;;;20.60;52.30;;;;;;4942812;28;45325;-60
2023/03/24 14:15:27;;;;;;;2.08;0.90;;;20.60;52.40;;;;;;4926683;28;45688;-58
2023/03/24 14:17:53;;;;;;;1.00;0.90;;;20.60;52.40;;;;;;4943123;28;45351;-59
2023/03/24 14:20:34;;;;;;;2.10;0.93;;;20.50;52.30;;;;;;4927844;28;45250;-59
2023/03/24 14:23:00;;;;;;;0.93;0.80;;;20.50;52.40;;;;;;4931438;28;45306;-57
2023/03/24 14:25:29;;;;;;;0.75;0.73;;;20.50;52.30;;;;;;4912122;28;45530;-60
2023/03/24 14:28:26;;;;;;;1.50;0.80;;;20.50;52.30;;;;;;4916811;28;45533;-59
2023/03/24 14:31:14;;;;;;;1.13;0.90;;;20.50;53.00;;;;;;4911733;28;45822;-60
2023/03/24 14:34:00;;;;;;;1.02;0.90;;;20.50;52.50;;;;;;4932416;28;45244;-58
2023/03/24 14:36:38;;;;;;;1.20;1.00;;;20.50;52.40;;;;;;4917814;28;45308;-59
2023/03/24 14:39:31;;;;;;;0.80;0.80;;;20.50;52.40;;;;;;4944215;28;46194;-60
2023/03/24 14:41:57;;;;;;;0.63;0.63;;;20.50;52.50;;;;;;4940729;28;45361;-59
2023/03/24 14:44:45;;;;;;;1.08;0.90;;;20.50;52.50;;;;;;4916099;28;45487;-60
2023/03/24 14:47:15;;;;;;;1.17;0.73;;;20.50;52.50;;;;;;4935708;28;45204;-61
2023/03/24 14:49:42;;;;;;;1.00;0.90;;;20.40;52.40;;;;;;4919758;28;45571;-55
2023/03/24 14:52:28;;;;;;;1.05;0.70;;;20.40;52.40;;;;;;4908108;28;45675;-60
2023/03/24 14:54:57;;;;;;;3.03;0.70;;;20.50;52.50;;;;;;4927121;28;44952;-60
2023/03/24 14:57:27;;;;;;;1.38;0.90;;;20.40;52.50;;;;;;4946543;28;46788;-59
2023/03/24 15:00:05;;;;;;;2.20;0.90;;;20.40;52.40;;;;;;4949426;28;46418;-61
2023/03/24 15:02:38;;;;;;;0.93;0.90;;;20.40;52.50;;;;;;4917146;28;45484;-59
2023/03/24 15:05:13;;;;;;;1.20;0.88;;;20.40;52.40;;;;;;4929074;28;45263;-61
2023/03/24 15:07:40;;;;;;;1.42;0.80;;;20.40;52.50;;;;;;4943770;28;45271;-58
2023/03/24 15:10:06;;;;;;;1.58;0.88;;;20.40;52.40;;;;;;4940162;28;45630;-59
2023/03/24 15:12:32;;;;;;;1.05;0.88;;;20.40;52.40;;;;;;4925396;28;45134;-60
2023/03/24 15:14:58;;;;;;;1.02;0.70;;;20.40;52.40;;;;;;4925809;28;45176;-60
2023/03/24 15:17:23;;;;;;;0.98;0.77;;;20.40;52.40;;;;;;4915061;28;45829;-60
2023/03/24 15:19:52;;;;;;;1.58;0.93;;;20.40;52.50;;;;;;4940722;28;46307;-59
2023/03/24 15:22:19;;;;;;;3.00;0.90;;;20.40;52.50;;;;;;4931926;28;45957;-61
2023/03/24 15:24:48;;;;;;;0.70;0.70;;;20.40;52.50;;;;;;4919081;28;45383;-60
2023/03/24 15:27:20;;;;;;;1.27;1.00;;;20.40;52.50;;;;;;4937457;28;45414;-60
2023/03/24 15:29:52;;;;;;;0.90;0.77;;;20.30;52.50;;;;;;4932606;28;45328;-60
2023/03/24 15:32:19;;;;;;;1.48;0.95;;;20.30;52.50;;;;;;4939056;28;45296;-60
2023/03/24 15:34:53;;;;;;;1.45;0.70;;;20.30;52.50;;;;;;4926160;28;44859;-60
2023/03/24 15:37:41;;;;;;;0.70;0.68;;;20.30;52.50;;;;;;4941499;28;45222;-60
2023/03/24 15:40:29;;;;;;;0.90;0.80;;;20.30;52.50;;;;;;4925787;28;45794;-60
2023/03/24 15:42:55;;;;;;;0.80;0.80;;;20.30;52.50;;;;;;4930379;28;45369;-60
2023/03/24 15:45:28;;;;;;;0.60;0.60;;;20.30;52.40;;;;;;4937408;28;45527;-59
2023/03/24 15:47:54;;;;;;;1.20;1.00;;;20.30;52.40;;;;;;4936411;28;45613;-59
2023/03/24 15:50:29;;;;;;;1.00;0.90;;;20.30;52.40;;;;;;4940750;28;45994;-59
2023/03/24 15:53:14;;;;;;;1.33;0.90;;;20.30;52.40;;;;;;4918742;28;46351;-58
2023/03/24 15:55:41;;;;;;;0.90;0.73;;;20.30;52.40;;;;;;4938365;28;45747;-57
2023/03/24 15:58:21;;;;;;;0.77;0.77;;;20.30;52.50;;;;;;4921407;28;45250;-60
2023/03/24 16:00:47;;;;;;;1.48;0.80;;;20.30;52.60;;;;;;4941923;28;46642;-60
2023/03/24 16:03:16;;;;;;;1.10;1.00;;;20.20;52.50;;;;;;4928379;28;45377;-59
2023/03/24 16:05:47;;;;;;;1.23;0.95;;;20.20;52.50;;;;;;4902786;28;45571;-58
2023/03/24 16:08:34;;;;;;;1.52;0.90;;;20.20;52.60;;;;;;4896503;28;45136;-58
2023/03/24 16:11:03;;;;;;;0.77;0.70;;;20.20;52.60;;;;;;4902003;28;45725;-59
2023/03/24 16:13:29;;;;;;;1.20;0.90;;;20.20;52.60;;;;;;4935342;28;45605;-60
2023/03/24 16:16:13;;;;;;;1.10;0.90;;;20.20;52.60;;;;;;4938200;28;44828;-59
2023/03/24 16:18:43;;;;;;;0.90;0.73;;;20.20;52.60;;;;;;4948548;28;45349;-61
2023/03/24 16:21:09;;;;;;;0.70;0.70;;;20.20;52.60;;;;;;4927569;28;45344;-60
2023/03/24 16:23:35;;;;;;;0.70;0.70;;;20.20;52.60;;;;;;4933511;28;44703;-59
2023/03/24 16:26:00;;;;;;;1.50;0.90;;;20.20;52.60;;;;;;4927921;28;45296;-58
2023/03/24 16:28:26;;;;;;;1.20;1.02;;;20.20;52.60;;;;;;4950972;28;45020;-60
2023/03/24 16:30:59;;;;;;;0.73;0.68;;;20.20;52.60;;;;;;4912482;28;46397;-60
2023/03/24 16:33:26;;;;;;;1.15;0.95;;;20.20;52.60;;;;;;4916352;28;45470;-59
2023/03/24 16:35:51;;;;;;;1.33;0.93;;;20.20;52.60;;;;;;4929702;28;45108;-59
2023/03/24 16:38:17;;;;;;;0.95;0.85;;;20.10;52.60;;;;;;4935529;28;45318;-59
2023/03/24 16:40:45;;;;;;;1.02;0.80;;;20.10;52.60;;;;;;4930309;28;45519;-59
2023/03/24 16:43:10;;;;;;;1.52;0.77;;;20.10;52.70;;;;;;4946382;28;44853;-59
2023/03/24 16:45:36;;;;;;;0.77;0.70;;;20.10;52.70;;;;;;4916212;28;46113;-60
2023/03/24 16:48:01;;;;;;;0.93;0.70;;;20.10;52.70;;;;;;4928845;28;45230;-59
2023/03/24 16:50:35;;;;;;;1.25;0.85;;;20.10;52.70;;;;;;4942091;28;46166;-61
2023/03/24 16:53:03;;;;;;;0.73;0.70;;;20.10;52.70;;;;;;4916842;28;45147;-59
2023/03/24 16:55:32;;;;;;;1.00;0.77;;;20.00;52.70;;;;;;4925119;28;45637;-61
2023/03/24 16:57:57;;;;;;;1.17;0.80;;;20.10;52.70;;;;;;4936976;28;45765;-59
2023/03/24 17:00:23;;;;;;;0.80;0.77;;;20.00;52.70;;;;;;4941342;28;45943;-59
2023/03/24 17:02:49;;;;;;;0.70;0.70;;;20.10;52.70;;;;;;4942551;28;45165;-60
2023/03/24 17:05:21;;;;;;;1.02;0.77;;;20.00;52.60;;;;;;4925033;28;45780;-58
2023/03/24 17:07:46;;;;;;;2.70;0.75;;;20.00;52.60;;;;;;4919789;28;45440;-60
2023/03/24 17:10:12;;;;;;;0.80;0.77;;;20.00;52.70;;;;;;4915999;28;46009;-59